Hauptseite
METAR-TAF:

METAR-TAF

Flughäfen :

Curaçao, Niederländische Antillen

Flughafen Curaçao

Breite: 12-12N, Länge: 068-58W, Höhe: 9 m

Beobachtung

Neuester Wetterbericht von vor 17 Minuten, um 06:00 UTC
Wind 9 kt aus Ost
Temperatur 27°C
Luftfeuchtigkeit 84%
Luftdruck 1012 hPa
Sichtweite 10 km oder mehr
Aufgelockert bewölkt in der Höhe von 1700 ft

METAR: TNCC 230600Z 08009KT 9999 SCT017 27/24 Q1012 NOSIG

Zeit: 02:17 (06:17 UTC)

Prognose

Neuester Wetterbericht von vor 2 Stunden und 17 Minuten, um 04:00 UTC
Gültige Prognose vom 23 um 06 UTC bis 24 um 06 UTC
Wind 11 kt aus Ost
Sichtweite 10 km oder mehr
Aufgelockert bewölkt in der Höhe von 1800 ft
Zeitweise
vom 23 um 06 UTC bis 23 um 12 UTC
Durchbrochene Bewölkung in der Höhe von 1400 ft

TAF: TNCC 230400Z 2306/2406 09011KT 9999 SCT018 TEMPO 2306/2312 BKN014

Wetterbeobachtungen und Prognosen von mehr als 4000 Flughäfen (METAR und TAF Bericht).

Die verfügbaren Stationen werden durch gelbe und rote Markierungen auf der Karte dargestellt.

Führen Sie die Maus auf sie, um den Namen der Station zu sehen.

Darauf klicken, um die Beobachtung von Wetterbeobachtungen und Prognosen zu sehen.

Um die Karte zu ändern : klicken Sie auf den grünen Tasten mit einem schwarzen Kreuz Zum Vergrößern, auf den grünen Button mit einem Gedankenstrich zu verkleinern, oder auf die grünen Pfeile für benachbarte Karten.


METAR-TAF: